Time;durP1;ratioP1;P1;durP2;ratioP2;P2;SDS_P1;SDS_P2;PMS_P1;PMS_P2;Temp;Humidity;BMP_temperature;BMP_pressure;BME280_temperature;BME280_humidity;BME280_pressure;Samples;Min_cycle;Max_cycle;Signal;HPM_P1;HPM_P2
2022/08/13 00:01:21;;;;;;;4.15;1.63;;;19.70;99.90;;;;;;5022841;28;20060;-66
2022/08/13 00:03:48;;;;;;;3.40;1.15;;;19.60;99.90;;;;;;5026013;28;20045;-54
2022/08/13 00:06:24;;;;;;;3.40;1.23;;;19.60;99.90;;;;;;5024233;28;20412;-63
2022/08/13 00:08:51;;;;;;;1.20;1.20;;;19.60;99.90;;;;;;5025491;28;20392;-57
2022/08/13 00:12:56;;;;;;;1.38;1.27;;;19.60;99.90;;;;;;5026026;28;20120;-53
2022/08/13 00:14:04;;;;;;;1.30;1.20;;;19.60;99.90;;;;;;5025847;28;20513;-60
2022/08/13 00:16:31;;;;;;;6.13;1.48;;;19.50;99.90;;;;;;5008848;28;20041;-55
2022/08/13 00:18:57;;;;;;;9.40;1.50;;;19.50;99.90;;;;;;5026317;28;20107;-62
2022/08/13 00:21:23;;;;;;;1.38;1.27;;;19.50;99.90;;;;;;5026805;28;20053;-60
2022/08/13 00:23:53;;;;;;;2.17;1.35;;;19.40;99.90;;;;;;5013769;28;20053;-60
2022/08/13 00:26:19;;;;;;;4.82;1.90;;;19.40;99.90;;;;;;5025623;28;20493;-54
2022/08/13 00:28:49;;;;;;;1.35;1.25;;;19.40;99.90;;;;;;5008023;28;20053;-56
2022/08/13 00:31:15;;;;;;;2.60;1.30;;;19.40;99.90;;;;;;5026681;28;20527;-66
2022/08/13 00:33:41;;;;;;;3.90;1.45;;;19.30;99.90;;;;;;5026015;28;20069;-52
2022/08/13 00:36:08;;;;;;;4.43;1.50;;;19.30;99.90;;;;;;5016050;28;20484;-59
2022/08/13 00:38:35;;;;;;;3.92;1.55;;;19.30;99.90;;;;;;5006793;28;20495;-61
2022/08/13 00:41:00;;;;;;;5.57;1.20;;;19.20;99.90;;;;;;5025746;28;20049;-56
2022/08/13 00:43:32;;;;;;;1.15;1.08;;;19.20;99.90;;;;;;5027135;28;20045;-56
2022/08/13 00:45:59;;;;;;;2.30;1.63;;;19.10;99.90;;;;;;5018961;28;20038;-57
2022/08/13 00:48:43;;;;;;;1.52;1.42;;;19.10;99.90;;;;;;5021836;28;20049;-60
2022/08/13 00:51:10;;;;;;;1.30;1.20;;;18.90;99.90;;;;;;5026461;28;20037;-50
2022/08/13 00:53:40;;;;;;;8.60;1.60;;;18.90;99.90;;;;;;5025706;28;20504;-59
2022/08/13 00:56:10;;;;;;;7.53;1.40;;;18.90;99.90;;;;;;5024950;28;20045;-60
2022/08/13 00:58:36;;;;;;;2.42;1.40;;;18.80;99.90;;;;;;5024182;28;20041;-53
2022/08/13 01:01:05;;;;;;;5.28;1.10;;;18.80;99.90;;;;;;5026453;28;20048;-53
2022/08/13 01:03:34;;;;;;;1.93;1.67;;;18.70;99.90;;;;;;5025800;28;20041;-62
2022/08/13 01:06:01;;;;;;;1.88;1.75;;;18.70;99.90;;;;;;5026047;28;20785;-59
2022/08/13 01:08:31;;;;;;;2.00;1.50;;;18.70;99.90;;;;;;5006768;28;20188;-56
2022/08/13 01:11:02;;;;;;;3.65;1.40;;;18.70;99.90;;;;;;5025525;28;20056;-55
2022/08/13 01:13:30;;;;;;;2.55;1.25;;;18.70;99.90;;;;;;5025500;28;20060;-62
2022/08/13 01:15:57;;;;;;;4.25;1.55;;;18.70;99.90;;;;;;5025096;28;20118;-61
2022/08/13 01:18:24;;;;;;;1.40;1.25;;;18.80;99.90;;;;;;5025272;28;20045;-61
2022/08/13 01:21:00;;;;;;;3.53;1.40;;;18.80;99.90;;;;;;5024960;28;20248;-58
2022/08/13 01:23:30;;;;;;;7.95;1.40;;;18.70;99.90;;;;;;5026501;28;20492;-57
2022/08/13 01:25:59;;;;;;;2.20;1.38;;;18.70;99.90;;;;;;5025995;28;20091;-57
2022/08/13 01:28:29;;;;;;;3.03;1.23;;;18.60;99.90;;;;;;5024199;28;20041;-55
2022/08/13 01:31:05;;;;;;;3.90;1.77;;;18.60;99.90;;;;;;5008578;28;21210;-56
2022/08/13 01:33:35;;;;;;;1.70;1.58;;;18.50;99.90;;;;;;5017369;28;20480;-63
2022/08/13 01:36:04;;;;;;;3.88;1.75;;;18.50;99.90;;;;;;5026125;28;20080;-60
2022/08/13 01:38:31;;;;;;;2.58;1.90;;;18.50;99.90;;;;;;5025114;28;20030;-62
2022/08/13 01:40:57;;;;;;;1.92;1.38;;;18.50;99.90;;;;;;5025420;28;20096;-54
2022/08/13 01:43:28;;;;;;;2.60;1.30;;;18.40;99.90;;;;;;5024596;28;20085;-65
2022/08/13 01:45:54;;;;;;;5.28;1.50;;;18.40;99.90;;;;;;5005150;28;20045;-53
2022/08/13 01:51:23;;;;;;;1.33;1.23;;;18.30;99.90;;;;;;5025707;28;20080;-60
2022/08/13 01:53:58;;;;;;;1.63;1.23;;;18.20;99.90;;;;;;5024093;28;20037;-50
2022/08/13 01:56:26;;;;;;;4.65;1.15;;;18.20;99.90;;;;;;5008610;28;20491;-59
2022/08/13 01:58:55;;;;;;;1.60;1.50;;;18.10;99.90;;;;;;5024959;28;20069;-55
2022/08/13 02:01:25;;;;;;;3.30;1.40;;;18.00;99.90;;;;;;5026241;28;20129;-54
2022/08/13 02:04:01;;;;;;;2.78;1.20;;;18.00;99.90;;;;;;5022726;28;20492;-53
2022/08/13 02:06:31;;;;;;;4.25;1.60;;;17.90;99.90;;;;;;5008198;28;20049;-63
2022/08/13 02:09:00;;;;;;;3.03;1.38;;;17.70;99.90;;;;;;5007042;28;20507;-56
2022/08/13 02:11:27;;;;;;;;;;;17.90;99.90;;;;;;5029119;28;20045;-57
2022/08/13 02:13:55;;;;;;;1.67;1.45;;;17.80;99.90;;;;;;5019639;28;19927;-57
2022/08/13 02:16:21;;;;;;;1.52;1.35;;;17.80;99.90;;;;;;5014870;28;20052;-54
2022/08/13 02:18:51;;;;;;;3.55;1.55;;;17.80;99.90;;;;;;5029213;28;20053;-66
2022/08/13 02:21:22;;;;;;;5.95;1.50;;;17.70;99.90;;;;;;5028557;28;20124;-60
2022/08/13 02:23:56;;;;;;;2.15;1.80;;;17.70;99.90;;;;;;5027235;28;20441;-53
2022/08/13 02:26:23;;;;;;;3.60;1.30;;;17.70;99.90;;;;;;5028844;28;20041;-54
2022/08/13 02:28:51;;;;;;;2.67;1.42;;;17.60;99.90;;;;;;5028231;28;20050;-62
2022/08/13 02:31:20;;;;;;;3.90;1.80;;;17.60;99.90;;;;;;5029084;28;20395;-54
2022/08/13 02:33:46;;;;;;;3.65;1.67;;;17.60;99.90;;;;;;5027139;28;20077;-58
2022/08/13 02:36:12;;;;;;;2.70;1.58;;;17.60;99.90;;;;;;5028783;28;20056;-56
2022/08/13 02:38:38;;;;;;;1.58;1.30;;;17.60;99.90;;;;;;5027296;28;20116;-54
2022/08/13 02:43:50;;;;;;;1.10;1.10;;;17.40;99.90;;;;;;5027752;28;20057;-55
2022/08/13 02:46:17;;;;;;;5.65;1.60;;;17.30;99.90;;;;;;5027477;28;20056;-57
2022/08/13 02:48:43;;;;;;;2.42;1.90;;;17.20;99.90;;;;;;5027456;28;20192;-62
2022/08/13 02:51:12;;;;;;;4.38;1.30;;;17.00;99.90;;;;;;5027485;28;20693;-64
2022/08/13 02:53:39;;;;;;;3.38;1.90;;;16.90;99.90;;;;;;5028628;28;20056;-65
2022/08/13 02:56:08;;;;;;;5.07;1.55;;;16.90;99.90;;;;;;5009739;28;20053;-54
2022/08/13 02:58:39;;;;;;;7.57;1.30;;;16.90;99.90;;;;;;5028309;28;20514;-61
2022/08/13 03:01:06;;;;;;;1.20;1.10;;;16.90;99.90;;;;;;5026717;28;20216;-59
2022/08/13 03:03:31;;;;;;;1.50;1.40;;;16.80;99.90;;;;;;5027556;28;20496;-55
2022/08/13 03:06:00;;;;;;;2.72;1.50;;;16.90;99.90;;;;;;5028242;28;20130;-55
2022/08/13 03:08:28;;;;;;;1.63;1.43;;;16.80;99.90;;;;;;5027341;28;20060;-59
2022/08/13 03:10:55;;;;;;;4.20;1.70;;;16.80;99.90;;;;;;5027938;28;20045;-58
2022/08/13 03:13:28;;;;;;;3.63;1.73;;;16.90;99.90;;;;;;5026750;28;20048;-56
2022/08/13 03:15:56;;;;;;;4.13;1.50;;;16.80;99.90;;;;;;5027567;28;20553;-60
2022/08/13 03:18:23;;;;;;;1.65;1.30;;;16.80;99.90;;;;;;5027806;28;20476;-59
2022/08/13 03:20:49;;;;;;;6.15;1.67;;;16.80;99.90;;;;;;5026224;28;20057;-61
2022/08/13 03:23:15;;;;;;;2.17;1.67;;;16.80;99.90;;;;;;5026257;28;20060;-60
2022/08/13 03:25:41;;;;;;;1.65;1.13;;;16.80;99.90;;;;;;5027237;28;20395;-56
2022/08/13 03:28:07;;;;;;;1.42;1.33;;;16.80;99.90;;;;;;5010262;28;20064;-59
2022/08/13 03:30:34;;;;;;;3.42;1.52;;;16.70;99.90;;;;;;5026833;28;20426;-56
2022/08/13 03:33:06;;;;;;;1.42;1.33;;;16.70;99.90;;;;;;5026040;28;20056;-61
2022/08/13 03:35:31;;;;;;;5.85;1.67;;;16.70;99.90;;;;;;5027338;28;20376;-64
2022/08/13 03:37:57;;;;;;;2.90;1.33;;;16.60;99.90;;;;;;5026602;28;20057;-55
2022/08/13 03:40:25;;;;;;;1.55;1.40;;;16.60;99.90;;;;;;5027901;28;20045;-52
2022/08/13 03:42:52;;;;;;;3.55;1.60;;;16.60;99.90;;;;;;5026025;28;20435;-67
2022/08/13 03:45:20;;;;;;;2.42;1.40;;;16.60;99.90;;;;;;4993534;28;20049;-60
2022/08/13 03:47:46;;;;;;;1.38;1.27;;;16.60;99.90;;;;;;5004311;28;20123;-55
2022/08/13 03:50:13;;;;;;;1.33;1.23;;;16.50;99.90;;;;;;5026881;28;20415;-60
2022/08/13 03:52:40;;;;;;;1.80;1.20;;;16.50;99.90;;;;;;5027277;28;20055;-56
2022/08/13 03:55:11;;;;;;;1.60;1.20;;;16.40;99.90;;;;;;5006436;28;20049;-64
2022/08/13 03:57:40;;;;;;;3.45;1.63;;;16.40;99.90;;;;;;5017978;28;20049;-58
2022/08/13 04:00:13;;;;;;;5.05;1.35;;;16.30;99.90;;;;;;5008047;28;20052;-57
2022/08/13 04:02:40;;;;;;;3.03;1.50;;;16.30;99.90;;;;;;5027832;28;20449;-54
2022/08/13 04:05:16;;;;;;;2.53;1.58;;;16.30;99.90;;;;;;5008235;28;20164;-58
2022/08/13 04:07:45;;;;;;;1.63;1.52;;;16.30;99.90;;;;;;5022294;28;20058;-56
2022/08/13 04:10:12;;;;;;;3.08;1.60;;;16.30;99.90;;;;;;5026488;28;20488;-55
2022/08/13 04:12:38;;;;;;;2.28;1.75;;;16.20;99.90;;;;;;5026290;28;20060;-62
2022/08/13 04:15:06;;;;;;;1.55;1.45;;;16.20;99.90;;;;;;5027218;28;20496;-61
2022/08/13 04:17:35;;;;;;;5.18;1.48;;;16.20;99.90;;;;;;5024304;28;20130;-63
2022/08/13 04:20:02;;;;;;;2.50;1.43;;;16.20;99.90;;;;;;5009520;28;20543;-61
2022/08/13 04:22:28;;;;;;;4.95;1.63;;;16.20;99.90;;;;;;5026303;28;20049;-64
2022/08/13 04:24:54;;;;;;;3.85;1.65;;;16.10;99.90;;;;;;5027212;28;20167;-55
2022/08/13 04:27:20;;;;;;;5.05;2.00;;;16.10;99.90;;;;;;5025271;28;20041;-57
2022/08/13 04:29:45;;;;;;;5.93;1.88;;;16.10;99.90;;;;;;5026524;28;20080;-59
2022/08/13 04:32:11;;;;;;;1.90;1.73;;;16.10;99.90;;;;;;5016798;28;20488;-60
2022/08/13 04:34:37;;;;;;;4.10;1.52;;;16.00;99.90;;;;;;5022134;28;20179;-60
2022/08/13 04:37:03;;;;;;;4.88;1.88;;;16.00;99.90;;;;;;5026735;28;20041;-56
2022/08/13 04:39:28;;;;;;;5.93;1.42;;;16.00;99.90;;;;;;5025996;28;20438;-56
2022/08/13 04:41:54;;;;;;;2.90;1.55;;;16.00;99.90;;;;;;5025494;28;20124;-57
2022/08/13 04:44:20;;;;;;;3.85;1.45;;;16.00;99.90;;;;;;5025709;28;20041;-56
2022/08/13 04:46:46;;;;;;;2.20;1.63;;;16.00;99.90;;;;;;5026200;28;20045;-62
2022/08/13 04:49:12;;;;;;;1.55;1.45;;;16.00;99.90;;;;;;5008698;28;20049;-59
2022/08/13 04:51:39;;;;;;;3.13;1.33;;;16.10;99.90;;;;;;5008301;28;20045;-54
2022/08/13 04:54:06;;;;;;;1.35;1.25;;;16.10;99.90;;;;;;4992407;28;20050;-58
2022/08/13 04:56:33;;;;;;;2.95;1.50;;;16.10;99.90;;;;;;5025579;28;20071;-65
2022/08/13 04:58:58;;;;;;;9.45;1.95;;;16.10;99.90;;;;;;5008707;28;20052;-67
2022/08/13 05:01:24;;;;;;;2.15;1.40;;;16.20;99.90;;;;;;5007924;28;20037;-54
2022/08/13 05:03:51;;;;;;;1.65;1.55;;;16.20;99.90;;;;;;5019241;28;20148;-60
2022/08/13 05:06:19;;;;;;;3.05;1.75;;;16.20;99.90;;;;;;5019121;28;20057;-54
2022/08/13 05:08:50;;;;;;;2.83;1.90;;;16.20;99.90;;;;;;5025926;28;20045;-61
2022/08/13 05:11:18;;;;;;;3.70;1.25;;;16.30;99.90;;;;;;5013106;28;20601;-52
2022/08/13 05:13:45;;;;;;;4.13;1.30;;;16.40;99.90;;;;;;5022074;28;20049;-63
2022/08/13 05:16:16;;;;;;;3.83;2.08;;;16.40;99.90;;;;;;5024761;28;20053;-61
2022/08/13 05:18:52;;;;;;;4.93;1.35;;;16.40;99.90;;;;;;5008096;28;20049;-58
2022/08/13 05:21:22;;;;;;;1.60;1.50;;;16.40;99.90;;;;;;5007997;28;20045;-51
2022/08/13 05:23:53;;;;;;;5.13;1.80;;;16.50;99.90;;;;;;5026162;28;20084;-65
2022/08/13 05:26:31;;;;;;;5.78;1.80;;;16.50;99.90;;;;;;5024324;28;20587;-58
2022/08/13 05:29:04;;;;;;;3.60;1.50;;;16.60;99.90;;;;;;5026254;28;20188;-61
2022/08/13 05:31:30;;;;;;;1.50;1.40;;;16.60;99.90;;;;;;5024552;28;20503;-54
2022/08/13 05:33:57;;;;;;;3.28;1.60;;;16.70;99.90;;;;;;5025341;28;20049;-60
2022/08/13 05:36:28;;;;;;;8.50;1.60;;;16.80;99.90;;;;;;5025420;28;20484;-60
2022/08/13 05:38:58;;;;;;;3.22;1.70;;;16.90;99.90;;;;;;5009120;28;20045;-59
2022/08/13 05:41:25;;;;;;;4.18;1.70;;;17.00;99.90;;;;;;5021254;28;20053;-63
2022/08/13 05:43:52;;;;;;;1.58;1.48;;;17.00;99.90;;;;;;5025506;28;20085;-58
2022/08/13 05:46:19;;;;;;;4.18;1.55;;;17.10;99.90;;;;;;5011542;28;20583;-59
2022/08/13 05:48:56;;;;;;;4.55;1.63;;;17.20;99.90;;;;;;5011672;28;20051;-58
2022/08/13 05:51:28;;;;;;;1.75;1.45;;;17.30;99.90;;;;;;5028240;28;20050;-60
2022/08/13 05:53:56;;;;;;;6.25;1.70;;;17.40;99.90;;;;;;5011390;28;20053;-54
2022/08/13 05:56:22;;;;;;;1.95;1.48;;;17.50;99.90;;;;;;5010838;28;20057;-59
2022/08/13 05:58:49;;;;;;;1.77;1.67;;;17.60;99.90;;;;;;5029443;28;20045;-59
2022/08/13 06:04:01;;;;;;;4.53;2.05;;;17.90;99.90;;;;;;5028542;28;20057;-59
2022/08/13 06:06:28;;;;;;;4.63;2.67;;;18.00;99.90;;;;;;4993312;28;20108;-56
2022/08/13 06:08:58;;;;;;;4.72;1.80;;;18.10;99.90;;;;;;5026253;28;20112;-57
2022/08/13 06:11:25;;;;;;;3.35;1.92;;;18.20;99.90;;;;;;5021957;28;20272;-59
2022/08/13 06:13:51;;;;;;;4.95;1.90;;;18.30;99.90;;;;;;5015697;28;20080;-59
2022/08/13 06:16:21;;;;;;;6.50;1.60;;;18.50;99.90;;;;;;4999714;28;20084;-53
2022/08/13 06:18:48;;;;;;;3.63;1.65;;;18.60;99.40;;;;;;5016085;28;20120;-57
2022/08/13 06:21:18;;;;;;;3.08;1.75;;;18.80;98.20;;;;;;5011281;28;20056;-55
2022/08/13 06:23:45;;;;;;;1.60;1.50;;;19.00;96.50;;;;;;5018725;28;20445;-65
2022/08/13 06:26:15;;;;;;;5.10;1.88;;;19.10;97.30;;;;;;5023244;28;20037;-61
2022/08/13 06:28:41;;;;;;;3.67;1.67;;;19.20;94.20;;;;;;5025962;28;20141;-59
2022/08/13 06:31:16;;;;;;;6.88;1.70;;;19.40;93.40;;;;;;5025709;28;20045;-59
2022/08/13 06:33:44;;;;;;;3.22;1.50;;;19.50;92.30;;;;;;5026765;28;20049;-55
2022/08/13 06:36:13;;;;;;;3.60;1.70;;;19.70;92.70;;;;;;5026050;28;20036;-55
2022/08/13 06:38:51;;;;;;;4.75;1.83;;;19.80;92.90;;;;;;5027324;28;20049;-58
2022/08/13 06:41:19;;;;;;;2.00;1.80;;;19.90;92.40;;;;;;5020098;28;20103;-66
2022/08/13 06:43:51;;;;;;;1.47;1.47;;;20.00;93.20;;;;;;5011260;28;20053;-65
2022/08/13 06:46:22;;;;;;;3.28;1.33;;;20.20;91.20;;;;;;5004020;28;20303;-61
2022/08/13 06:48:49;;;;;;;6.25;1.35;;;20.20;83.60;;;;;;5018141;28;20582;-60
2022/08/13 06:51:15;;;;;;;2.45;1.52;;;20.40;78.80;;;;;;5019013;28;20038;-58
2022/08/13 06:53:43;;;;;;;6.85;1.80;;;20.50;79.70;;;;;;5005667;28;20404;-51
2022/08/13 06:56:11;;;;;;;3.90;1.40;;;20.70;82.50;;;;;;5025994;28;20033;-60
2022/08/13 06:58:39;;;;;;;3.80;1.40;;;20.80;80.50;;;;;;5025515;28;20042;-53
2022/08/13 07:01:05;;;;;;;2.30;1.55;;;20.90;68.30;;;;;;5022821;28;20046;-56
2022/08/13 07:03:34;;;;;;;6.57;2.00;;;21.10;69.40;;;;;;5024846;28;20037;-59
2022/08/13 07:06:01;;;;;;;1.50;1.40;;;21.30;76.90;;;;;;5006227;28;20486;-58
2022/08/13 07:08:30;;;;;;;4.68;1.42;;;21.50;79.00;;;;;;5023546;28;20800;-59
2022/08/13 07:13:44;;;;;;;1.38;1.13;;;22.00;63.30;;;;;;5024217;28;20526;-55
2022/08/13 07:16:14;;;;;;;5.25;1.40;;;22.40;64.10;;;;;;5004134;28;20546;-50
2022/08/13 07:18:40;;;;;;;3.03;1.40;;;22.70;59.30;;;;;;5017470;28;20049;-65
2022/08/13 07:21:10;;;;;;;3.65;1.10;;;23.00;54.60;;;;;;5026223;28;20041;-55
2022/08/13 07:23:41;;;;;;;2.28;1.50;;;23.30;59.30;;;;;;5008549;28;20053;-51
2022/08/13 07:26:07;;;;;;;4.97;1.40;;;23.50;46.80;;;;;;5005668;28;20045;-58
2022/08/13 07:28:34;;;;;;;3.83;1.75;;;23.80;52.30;;;;;;5023084;28;20176;-63
2022/08/13 07:31:06;;;;;;;6.28;1.98;;;23.90;46.80;;;;;;5023459;28;20050;-65
2022/08/13 07:33:36;;;;;;;4.22;1.10;;;24.10;35.20;;;;;;5026194;28;20362;-60
2022/08/13 07:36:08;;;;;;;3.78;1.20;;;24.40;31.90;;;;;;5025218;28;20088;-55
2022/08/13 07:38:35;;;;;;;2.35;1.25;;;24.70;25.20;;;;;;5007886;28;20046;-63
2022/08/13 07:41:02;;;;;;;3.70;1.10;;;24.90;26.30;;;;;;5007369;28;20057;-51
2022/08/13 07:43:29;;;;;;;2.42;1.20;;;25.20;20.00;;;;;;5025101;28;20056;-67
2022/08/13 07:46:10;;;;;;;1.15;1.15;;;25.50;14.60;;;;;;4991079;28;20513;-54
2022/08/13 07:48:41;;;;;;;2.30;1.20;;;25.70;16.50;;;;;;5024726;28;20461;-64
2022/08/13 07:51:19;;;;;;;2.60;1.42;;;25.70;16.00;;;;;;5027432;28;20889;-58
2022/08/13 07:53:49;;;;;;;3.63;1.00;;;25.70;9.70;;;;;;5025492;28;20095;-53
2022/08/13 07:56:29;;;;;;;5.18;1.48;;;26.00;9.20;;;;;;5024153;28;20048;-59
2022/08/13 07:59:00;;;;;;;4.82;1.02;;;26.30;11.90;;;;;;5026490;28;20092;-60
2022/08/13 08:01:30;;;;;;;4.88;1.00;;;26.50;5.70;;;;;;5018195;28;20524;-54
2022/08/13 08:03:57;;;;;;;4.63;1.00;;;26.70;2.20;;;;;;5017023;28;20103;-58
2022/08/13 08:06:25;;;;;;;2.05;1.08;;;26.90;2.20;;;;;;5022679;28;20055;-56
2022/08/13 08:08:54;;;;;;;3.53;1.00;;;27.00;1.70;;;;;;5022131;28;20049;-60
2022/08/13 08:14:06;;;;;;;5.55;1.00;;;27.20;1.30;;;;;;5021284;28;20057;-56
2022/08/13 08:16:36;;;;;;;5.13;1.20;;;27.40;1.00;;;;;;5017705;28;20045;-61
2022/08/13 08:19:03;;;;;;;6.28;1.10;;;27.50;1.10;;;;;;5020555;28;20100;-56
2022/08/13 08:21:31;;;;;;;6.85;1.40;;;27.70;1.00;;;;;;5008077;28;20069;-55
2022/08/13 08:24:01;;;;;;;4.63;1.30;;;27.90;1.20;;;;;;5024578;28;20108;-58
2022/08/13 08:26:30;;;;;;;1.90;1.10;;;28.10;1.00;;;;;;5025406;28;20049;-56
2022/08/13 08:28:56;;;;;;;;;;;28.10;1.00;;;;;;5024524;28;20045;-61
2022/08/13 08:31:24;;;;;;;2.85;1.15;;;28.10;1.00;;;;;;5006465;28;19928;-61
2022/08/13 08:33:50;;;;;;;2.97;1.00;;;28.20;1.00;;;;;;5025883;28;20056;-58
2022/08/13 08:36:17;;;;;;;4.63;0.95;;;28.30;1.00;;;;;;5024438;28;20092;-59
2022/08/13 08:44:23;;;;;;;3.50;0.90;;;28.60;1.00;;;;;;4997054;28;20503;-63
2022/08/13 08:46:56;;;;;;;7.13;1.20;;;28.60;1.00;;;;;;5005288;28;20085;-59
2022/08/13 08:49:30;;;;;;;8.05;1.15;;;28.70;1.00;;;;;;5007976;28;20495;-65
2022/08/13 08:51:57;;;;;;;4.18;1.00;;;28.80;1.00;;;;;;5024608;28;20056;-60
2022/08/13 08:54:23;;;;;;;2.13;1.23;;;28.90;1.00;;;;;;5024451;28;20395;-55
2022/08/13 08:56:55;;;;;;;2.22;0.90;;;29.00;1.00;;;;;;5021157;28;20046;-57
2022/08/13 08:59:28;;;;;;;4.70;0.80;;;29.20;1.00;;;;;;5019216;28;20528;-57
2022/08/13 09:01:55;;;;;;;3.78;0.75;;;29.20;1.00;;;;;;5019666;28;20463;-56
2022/08/13 09:04:25;;;;;;;1.92;0.85;;;29.20;1.00;;;;;;5021635;28;20096;-63
2022/08/13 09:06:56;;;;;;;9.20;0.82;;;29.20;1.00;;;;;;5010064;28;20054;-61
2022/08/13 09:09:22;;;;;;;4.03;1.00;;;29.30;1.00;;;;;;4970332;28;20053;-61
2022/08/13 09:11:52;;;;;;;6.22;1.20;;;29.40;1.00;;;;;;5003740;28;20045;-68
2022/08/13 09:14:20;;;;;;;1.33;0.80;;;29.50;1.00;;;;;;5005303;28;20092;-58
2022/08/13 09:16:46;;;;;;;1.83;0.93;;;29.50;1.00;;;;;;5005257;28;20038;-56
2022/08/13 09:19:12;;;;;;;1.67;1.05;;;29.10;1.00;;;;;;5004152;28;20064;-63
2022/08/13 09:21:46;;;;;;;1.55;1.02;;;28.80;1.00;;;;;;4984403;28;20064;-56
2022/08/13 09:24:15;;;;;;;5.70;0.90;;;28.80;1.00;;;;;;4990904;28;20050;-61
2022/08/13 09:26:47;;;;;;;2.10;0.80;;;28.80;1.00;;;;;;4975621;28;20463;-61
2022/08/13 09:29:18;;;;;;;1.95;0.80;;;28.70;1.00;;;;;;5008206;28;20112;-66
2022/08/13 09:31:48;;;;;;;3.13;0.80;;;28.40;1.00;;;;;;5006152;28;20058;-65
2022/08/13 09:34:15;;;;;;;8.23;1.00;;;28.10;1.50;;;;;;5008096;28;20054;-63
2022/08/13 09:36:41;;;;;;;3.70;0.80;;;28.00;1.90;;;;;;5007342;28;20045;-64
2022/08/13 09:39:08;;;;;;;7.30;0.80;;;28.00;2.60;;;;;;5009851;28;20494;-56
2022/08/13 09:41:48;;;;;;;2.60;0.80;;;28.20;4.80;;;;;;5005473;28;20496;-62
2022/08/13 09:44:16;;;;;;;6.90;1.10;;;28.40;1.30;;;;;;5002074;28;20045;-59
2022/08/13 09:46:42;;;;;;;3.10;0.80;;;28.50;1.00;;;;;;5005465;28;20042;-59
2022/08/13 09:49:11;;;;;;;2.45;0.85;;;28.60;2.70;;;;;;5006757;28;20121;-66
2022/08/13 09:51:37;;;;;;;5.30;0.77;;;28.70;1.00;;;;;;4979921;28;20058;-63
2022/08/13 09:54:05;;;;;;;0.80;0.70;;;28.60;1.00;;;;;;5000524;28;20101;-61
2022/08/13 09:56:36;;;;;;;1.42;0.60;;;28.80;1.10;;;;;;5008470;28;20116;-59
2022/08/13 09:59:02;;;;;;;4.03;1.00;;;29.00;1.00;;;;;;4999051;28;20464;-61
2022/08/13 10:01:27;;;;;;;3.70;0.90;;;29.00;1.00;;;;;;5002592;28;20081;-58
2022/08/13 10:03:53;;;;;;;1.25;0.60;;;29.00;1.00;;;;;;4996726;28;20045;-61
2022/08/13 10:06:19;;;;;;;2.20;0.70;;;28.90;1.00;;;;;;5015028;28;20046;-64
2022/08/13 10:08:46;;;;;;;9.40;1.30;;;28.80;1.00;;;;;;5006504;28;20078;-63
2022/08/13 10:11:16;;;;;;;2.50;0.88;;;28.70;1.00;;;;;;5009026;28;20503;-63
2022/08/13 10:13:42;;;;;;;1.13;0.63;;;28.80;1.00;;;;;;5002216;28;20034;-63
2022/08/13 10:16:10;;;;;;;0.73;0.70;;;28.70;1.00;;;;;;5025569;28;20053;-63
2022/08/13 10:18:36;;;;;;;7.13;0.90;;;28.80;1.00;;;;;;5004249;28;20460;-65
2022/08/13 10:21:02;;;;;;;5.72;0.90;;;28.80;1.00;;;;;;5005335;28;20477;-59
2022/08/13 10:23:30;;;;;;;1.80;0.93;;;28.80;1.00;;;;;;5022072;28;20164;-58
2022/08/13 10:25:56;;;;;;;6.03;0.85;;;28.90;1.00;;;;;;5023932;28;20049;-67
2022/08/13 10:28:34;;;;;;;4.60;0.73;;;29.00;1.00;;;;;;5011883;28;20060;-65
2022/08/13 10:31:08;;;;;;;1.63;0.80;;;29.00;1.00;;;;;;5019788;28;20112;-66
2022/08/13 10:33:37;;;;;;;3.92;0.70;;;28.90;1.00;;;;;;5023265;28;20041;-56
2022/08/13 10:36:04;;;;;;;3.25;0.70;;;28.80;1.00;;;;;;5006635;28;20361;-65
2022/08/13 10:38:30;;;;;;;1.40;0.77;;;28.80;1.00;;;;;;5007192;28;20081;-61
2022/08/13 10:41:00;;;;;;;0.73;0.68;;;28.90;1.00;;;;;;5006681;28;20045;-66
2022/08/13 10:43:31;;;;;;;1.92;0.80;;;28.90;1.00;;;;;;5025499;28;20050;-61
2022/08/13 10:45:58;;;;;;;1.85;0.80;;;28.90;1.00;;;;;;5006223;28;20515;-60
2022/08/13 10:48:27;;;;;;;7.38;0.80;;;28.90;1.00;;;;;;5002378;28;20056;-61
2022/08/13 10:50:55;;;;;;;1.80;0.80;;;28.90;1.00;;;;;;5023437;28;20050;-59
2022/08/13 10:56:22;;;;;;;2.38;0.90;;;29.10;1.00;;;;;;5011358;28;20045;-59
2022/08/13 10:58:49;;;;;;;4.68;0.60;;;29.30;1.00;;;;;;5003918;28;20049;-65
2022/08/13 11:01:15;;;;;;;2.08;0.73;;;29.30;1.00;;;;;;4987621;28;20077;-62
2022/08/13 11:03:45;;;;;;;2.30;0.70;;;29.30;1.00;;;;;;5022903;28;20052;-57
2022/08/13 11:06:12;;;;;;;4.53;0.68;;;29.20;1.00;;;;;;4990190;28;20049;-64
2022/08/13 11:08:38;;;;;;;2.35;0.60;;;29.20;1.00;;;;;;5008167;28;20034;-57
2022/08/13 11:11:05;;;;;;;1.45;0.70;;;29.00;1.00;;;;;;4987830;28;20045;-66
2022/08/13 11:13:31;;;;;;;3.03;0.70;;;29.10;1.00;;;;;;5024999;28;20048;-66
2022/08/13 11:15:59;;;;;;;2.08;0.70;;;29.10;1.00;;;;;;5024942;28;20060;-67
2022/08/13 11:18:26;;;;;;;2.10;0.85;;;29.10;1.00;;;;;;5009107;28;20781;-68
2022/08/13 11:21:07;;;;;;;7.07;0.77;;;29.00;1.00;;;;;;5023103;28;20052;-64
2022/08/13 11:23:34;;;;;;;1.60;0.90;;;28.90;1.00;;;;;;5025535;28;20077;-60
2022/08/13 11:25:59;;;;;;;0.68;0.60;;;28.80;1.00;;;;;;5014436;28;20038;-60
2022/08/13 11:28:25;;;;;;;2.67;0.70;;;28.80;1.00;;;;;;5025590;28;20399;-58
2022/08/13 11:30:52;;;;;;;4.25;0.80;;;28.80;1.00;;;;;;5025515;28;20100;-56
2022/08/13 11:33:20;;;;;;;0.73;0.73;;;28.90;1.00;;;;;;5006183;28;20052;-57
2022/08/13 11:35:46;;;;;;;2.13;0.77;;;28.80;1.00;;;;;;5005653;28;20053;-66
2022/08/13 11:38:14;;;;;;;0.98;0.90;;;28.80;1.00;;;;;;5024907;28;20048;-61
2022/08/13 11:40:47;;;;;;;4.43;0.93;;;28.80;1.00;;;;;;4995213;28;20135;-68
2022/08/13 11:43:13;;;;;;;0.98;0.50;;;28.90;1.00;;;;;;5016557;28;20280;-57
2022/08/13 11:45:39;;;;;;;3.40;0.77;;;29.00;1.00;;;;;;5019396;28;20096;-55
2022/08/13 11:48:08;;;;;;;2.30;0.75;;;29.00;1.00;;;;;;5024436;28;20542;-60
2022/08/13 11:50:34;;;;;;;1.77;0.70;;;28.90;1.00;;;;;;5025585;28;20438;-67
2022/08/13 11:53:00;;;;;;;4.38;0.75;;;28.80;1.00;;;;;;5021987;28;20866;-62
2022/08/13 11:55:26;;;;;;;0.52;0.52;;;28.80;1.00;;;;;;5021482;28;20044;-60
2022/08/13 11:58:01;;;;;;;1.00;0.70;;;28.80;1.00;;;;;;5000873;28;20045;-62
2022/08/13 12:00:27;;;;;;;0.65;0.63;;;28.60;1.00;;;;;;4995725;28;20057;-63
2022/08/13 12:02:53;;;;;;;7.20;0.73;;;28.50;1.00;;;;;;4996559;28;20555;-67
2022/08/13 12:05:19;;;;;;;6.40;0.73;;;28.50;1.00;;;;;;5005314;28;20116;-63
2022/08/13 12:07:45;;;;;;;4.10;0.77;;;28.50;1.00;;;;;;4999576;28;20053;-62
2022/08/13 12:10:11;;;;;;;4.30;1.00;;;28.50;1.00;;;;;;5015080;28;20041;-57
2022/08/13 12:12:37;;;;;;;1.75;0.70;;;28.60;1.00;;;;;;4995077;28;20054;-59
2022/08/13 12:15:03;;;;;;;2.63;0.70;;;28.60;1.00;;;;;;5000774;28;20052;-62
2022/08/13 12:17:29;;;;;;;0.95;0.50;;;28.60;1.00;;;;;;5025201;28;20049;-66
2022/08/13 12:19:55;;;;;;;3.00;0.80;;;28.60;1.00;;;;;;5002568;28;20045;-57
2022/08/13 12:22:21;;;;;;;0.60;0.55;;;28.60;1.00;;;;;;5003106;28;20049;-61
2022/08/13 12:24:47;;;;;;;3.17;0.80;;;28.70;1.00;;;;;;5020690;28;20124;-58
2022/08/13 12:27:13;;;;;;;3.70;0.70;;;28.70;1.00;;;;;;5007801;28;20511;-62
2022/08/13 12:29:39;;;;;;;0.82;0.75;;;28.70;1.00;;;;;;5005077;28;20466;-59
2022/08/13 12:32:05;;;;;;;2.72;0.75;;;28.70;1.00;;;;;;5025040;28;20049;-65
2022/08/13 12:34:30;;;;;;;4.00;0.88;;;28.70;1.00;;;;;;5006389;28;20037;-60
2022/08/13 12:36:56;;;;;;;0.50;0.50;;;28.70;1.00;;;;;;5022921;28;20060;-66
2022/08/13 12:39:22;;;;;;;0.73;0.70;;;28.60;1.00;;;;;;5024546;28;20048;-57
2022/08/13 12:41:48;;;;;;;4.00;0.65;;;28.60;1.00;;;;;;5023038;28;20059;-62
2022/08/13 12:44:14;;;;;;;1.75;0.80;;;28.70;1.00;;;;;;5025335;28;20387;-63
2022/08/13 12:46:39;;;;;;;1.85;0.90;;;28.70;1.00;;;;;;5021486;28;20049;-67
2022/08/13 12:49:07;;;;;;;0.60;0.60;;;28.70;1.00;;;;;;5008296;28;20045;-64
2022/08/13 12:51:33;;;;;;;2.22;0.80;;;28.70;1.00;;;;;;5021689;28;20492;-59
2022/08/13 12:53:59;;;;;;;1.83;0.60;;;28.70;1.00;;;;;;5022842;28;20059;-58
2022/08/13 12:56:24;;;;;;;1.75;0.68;;;28.70;1.00;;;;;;5002633;28;20033;-66
2022/08/13 12:58:50;;;;;;;2.10;0.70;;;28.70;1.00;;;;;;5021647;28;20388;-59
2022/08/13 13:01:16;;;;;;;1.13;0.70;;;28.70;1.00;;;;;;5025055;28;20132;-64
2022/08/13 13:03:42;;;;;;;1.88;0.90;;;28.70;1.00;;;;;;5022940;28;20049;-66
2022/08/13 13:06:07;;;;;;;5.93;0.80;;;28.70;1.00;;;;;;4975821;28;20046;-61
2022/08/13 13:08:33;;;;;;;0.80;0.80;;;28.70;1.00;;;;;;4984710;28;20052;-63
2022/08/13 13:11:03;;;;;;;2.10;0.60;;;28.70;1.00;;;;;;4970730;28;20496;-61
2022/08/13 13:13:29;;;;;;;2.92;0.70;;;28.80;1.00;;;;;;4988016;28;20050;-64
2022/08/13 13:15:56;;;;;;;1.70;0.70;;;28.80;1.00;;;;;;5004353;28;20125;-64
2022/08/13 13:18:26;;;;;;;2.05;0.80;;;28.90;1.00;;;;;;5003347;28;20048;-61